createdAt,value
2018-06-23T00:00:27.159Z,86.55
2018-06-23T00:02:54.201Z,86.61
2018-06-23T00:05:21.213Z,86.95
2018-06-23T00:07:49.090Z,87.25
2018-06-23T00:10:16.385Z,87.74
2018-06-23T00:12:43.380Z,87.94
2018-06-23T00:15:10.453Z,88.67
2018-06-23T00:17:37.460Z,89.52
2018-06-23T00:20:05.605Z,89.38
2018-06-23T00:22:32.737Z,89.55
2018-06-23T00:24:59.986Z,89.34
2018-06-23T00:27:27.270Z,90.39
2018-06-23T00:29:54.380Z,90.13
2018-06-23T00:32:21.569Z,90.09
2018-06-23T00:34:48.761Z,90.12
2018-06-23T00:37:15.828Z,90.53
2018-06-23T00:39:42.904Z,90.55
2018-06-23T00:42:09.969Z,90.51
2018-06-23T00:44:37.049Z,90.92
2018-06-23T00:47:04.177Z,90.52
2018-06-23T00:49:31.278Z,90.65
2018-06-23T00:51:58.385Z,90.48
2018-06-23T00:54:25.433Z,90.30
2018-06-23T00:56:52.514Z,90.69
2018-06-23T00:59:31.337Z,90.58
2018-06-23T01:01:58.491Z,89.74
2018-06-23T01:04:25.516Z,90.06
2018-06-23T01:06:52.521Z,89.65
2018-06-23T01:09:19.560Z,90.08
2018-06-23T01:11:46.575Z,90.02
2018-06-23T01:14:13.677Z,90.26
2018-06-23T01:16:40.685Z,89.98
2018-06-23T01:19:07.737Z,90.25
2018-06-23T01:21:34.754Z,90.62
2018-06-23T01:24:01.778Z,91.27
2018-06-23T01:26:28.939Z,90.63
2018-06-23T01:28:56.019Z,90.96
2018-06-23T01:31:23.022Z,90.98
2018-06-23T01:33:50.088Z,91.21
2018-06-23T01:36:17.136Z,91.97
2018-06-23T01:38:44.132Z,92.43
2018-06-23T01:41:11.137Z,92.45
2018-06-23T01:43:38.138Z,93.19
2018-06-23T01:46:05.140Z,94.36
2018-06-23T01:48:32.241Z,94.64
2018-06-23T01:50:59.239Z,95.62
2018-06-23T01:53:26.288Z,95.64
2018-06-23T01:55:53.277Z,95.59
2018-06-23T01:58:20.268Z,97.59
2018-06-23T02:00:47.549Z,99.15
2018-06-23T02:03:14.553Z,100.00
2018-06-23T02:05:41.720Z,100.00
2018-06-23T02:08:08.714Z,100.00
2018-06-23T02:10:35.888Z,100.00
2018-06-23T02:13:02.951Z,100.00
2018-06-23T02:15:35.714Z,100.00
2018-06-23T02:18:08.509Z,100.00
2018-06-23T02:20:41.670Z,100.00
2018-06-23T02:23:14.318Z,100.00
2018-06-23T02:25:47.110Z,100.00
2018-06-23T02:28:19.800Z,100.00
2018-06-23T02:30:52.486Z,100.00
2018-06-23T02:33:26.445Z,100.00
2018-06-23T02:35:53.528Z,100.00
2018-06-23T02:38:20.541Z,100.00
2018-06-23T02:40:47.553Z,100.00
2018-06-23T02:43:14.861Z,100.00
2018-06-23T02:45:41.885Z,100.00
2018-06-23T02:48:08.958Z,100.00
2018-06-23T02:50:35.955Z,100.00
2018-06-23T02:53:02.970Z,100.00
2018-06-23T02:55:29.965Z,100.00
2018-06-23T02:57:56.996Z,100.00
2018-06-23T03:00:24.011Z,100.00
2018-06-23T03:02:51.028Z,100.00
2018-06-23T03:05:18.179Z,100.00
2018-06-23T03:07:45.258Z,100.00
2018-06-23T03:10:12.277Z,100.00
2018-06-23T03:12:39.276Z,100.00
2018-06-23T03:15:06.356Z,100.00
2018-06-23T03:17:33.387Z,100.00
2018-06-23T03:20:00.395Z,100.00
2018-06-23T03:22:27.488Z,100.00
2018-06-23T03:24:54.579Z,100.00
2018-06-23T03:27:21.560Z,100.00
2018-06-23T03:29:48.557Z,100.00
2018-06-23T03:32:15.569Z,100.00
2018-06-23T03:34:42.575Z,100.00
2018-06-23T03:37:09.697Z,100.00
2018-06-23T03:39:36.949Z,100.00
2018-06-23T03:42:03.999Z,100.00
2018-06-23T03:44:31.090Z,100.00
2018-06-23T03:46:58.113Z,100.00
2018-06-23T03:49:25.108Z,100.00
2018-06-23T03:51:52.213Z,100.00
2018-06-23T03:54:19.241Z,100.00
2018-06-23T03:56:46.356Z,100.00
2018-06-23T03:59:13.432Z,100.00
2018-06-23T04:01:40.556Z,100.00
2018-06-23T04:04:07.643Z,100.00
2018-06-23T04:06:34.805Z,100.00
2018-06-23T04:09:01.965Z,100.00
2018-06-23T04:11:29.006Z,100.00
2018-06-23T04:13:55.996Z,100.00
2018-06-23T04:16:23.033Z,100.00
2018-06-23T04:18:58.765Z,100.00
2018-06-23T04:21:27.393Z,100.00
2018-06-23T04:23:54.473Z,100.00
2018-06-23T04:26:21.593Z,100.00
2018-06-23T04:28:48.937Z,100.00
2018-06-23T04:31:16.249Z,100.00
2018-06-23T04:33:43.362Z,100.00
2018-06-23T04:36:10.385Z,100.00
2018-06-23T04:38:37.537Z,100.00
2018-06-23T04:41:04.889Z,100.00
2018-06-23T04:43:32.139Z,100.00
2018-06-23T04:45:59.150Z,100.00
2018-06-23T04:48:26.294Z,100.00
2018-06-23T04:50:53.321Z,100.00
2018-06-23T04:53:20.469Z,100.00
2018-06-23T04:55:48.734Z,100.00
2018-06-23T04:58:15.718Z,100.00
2018-06-23T05:00:42.725Z,100.00
2018-06-23T05:03:09.810Z,99.03
2018-06-23T05:05:36.918Z,100.00
2018-06-23T05:08:03.946Z,99.70
2018-06-23T05:10:31.103Z,98.60
2018-06-23T05:12:58.176Z,98.76
2018-06-23T05:15:25.168Z,98.38
2018-06-23T05:17:52.247Z,99.73
2018-06-23T05:20:19.338Z,100.00
2018-06-23T05:22:46.523Z,100.00
2018-06-23T05:25:13.776Z,100.00
2018-06-23T05:27:40.861Z,100.00
2018-06-23T05:30:07.962Z,100.00
2018-06-23T05:32:35.002Z,100.00
2018-06-23T05:35:02.116Z,100.00
2018-06-23T05:37:29.734Z,100.00
2018-06-23T05:39:56.753Z,100.00
2018-06-23T05:42:23.757Z,99.81
2018-06-23T05:44:50.824Z,99.77
2018-06-23T05:47:23.200Z,98.86
2018-06-23T05:49:50.292Z,97.36
2018-06-23T05:52:17.476Z,97.71
2018-06-23T05:54:44.574Z,96.39
2018-06-23T05:57:11.610Z,94.48
2018-06-23T05:59:38.634Z,93.45
2018-06-23T06:02:05.697Z,93.48
2018-06-23T06:04:32.785Z,94.10
2018-06-23T06:06:59.867Z,94.87
2018-06-23T06:09:26.875Z,95.12
2018-06-23T06:11:53.905Z,92.50
2018-06-23T06:14:21.086Z,93.53
2018-06-23T06:17:23.992Z,94.16
2018-06-23T06:20:00.081Z,94.75
2018-06-23T06:22:28.305Z,95.31
2018-06-23T06:24:55.553Z,95.94
2018-06-23T06:27:22.621Z,97.65
2018-06-23T06:29:50.568Z,98.61
2018-06-23T06:32:17.594Z,100.00
2018-06-23T06:34:44.710Z,100.00
2018-06-23T06:37:11.797Z,100.00
2018-06-23T06:39:38.802Z,100.00
2018-06-23T06:42:05.833Z,100.00
2018-06-23T06:44:33.679Z,100.00
2018-06-23T06:47:00.776Z,99.98
2018-06-23T06:49:27.782Z,98.01
2018-06-23T06:51:54.786Z,98.75
2018-06-23T06:54:21.818Z,99.12
2018-06-23T06:56:51.007Z,98.19
2018-06-23T06:59:19.082Z,99.78
2018-06-23T07:01:46.182Z,94.90
2018-06-23T07:04:13.227Z,95.15
2018-06-23T07:06:40.284Z,93.61
2018-06-23T07:09:10.081Z,93.71
2018-06-23T07:11:37.094Z,93.75
2018-06-23T07:14:04.806Z,95.35
2018-06-23T07:16:31.893Z,94.12
2018-06-23T07:18:58.906Z,96.13
2018-06-23T07:21:25.905Z,95.01
2018-06-23T07:23:53.058Z,95.70
2018-06-23T07:26:19.958Z,95.21
2018-06-23T07:28:47.008Z,95.90
2018-06-23T07:31:14.019Z,95.09
2018-06-23T07:33:41.054Z,97.31
2018-06-23T07:36:08.099Z,96.31
2018-06-23T07:38:35.146Z,93.87
2018-06-23T07:41:02.235Z,96.42
2018-06-23T07:43:29.242Z,93.32
2018-06-23T07:45:56.361Z,96.00
2018-06-23T07:48:23.379Z,98.88
2018-06-23T07:50:50.414Z,100.00
2018-06-23T07:53:17.433Z,100.00
2018-06-23T07:55:44.462Z,100.00
2018-06-23T07:58:11.512Z,100.00
2018-06-23T08:00:38.584Z,98.72
2018-06-23T08:03:05.821Z,98.64
2018-06-23T08:05:32.864Z,97.62
2018-06-23T08:07:59.985Z,97.90
2018-06-23T08:10:26.992Z,97.11
2018-06-23T08:12:54.066Z,94.08
2018-06-23T08:15:21.093Z,93.77
2018-06-23T08:17:48.163Z,92.66
2018-06-23T08:20:15.257Z,93.78
2018-06-23T08:22:42.268Z,91.57
2018-06-23T08:25:09.293Z,91.12
2018-06-23T08:27:36.304Z,86.92
2018-06-23T08:30:03.988Z,89.49
2018-06-23T08:32:31.502Z,91.09
2018-06-23T08:34:58.529Z,88.90
2018-06-23T08:37:25.600Z,89.71
2018-06-23T08:39:52.641Z,86.07
2018-06-23T08:42:19.744Z,85.30
2018-06-23T08:44:46.849Z,83.95
2018-06-23T08:47:13.870Z,81.29
2018-06-23T08:49:40.943Z,82.28
2018-06-23T08:52:08.078Z,82.86
2018-06-23T08:54:35.100Z,88.27
2018-06-23T08:57:02.153Z,86.49
2018-06-23T08:59:29.172Z,81.16
2018-06-23T09:01:56.233Z,83.33
2018-06-23T09:04:23.358Z,85.17
2018-06-23T09:06:50.598Z,85.84
2018-06-23T09:09:17.613Z,86.80
2018-06-23T09:11:44.654Z,85.23
2018-06-23T09:14:11.861Z,84.21
2018-06-23T09:16:38.939Z,84.39
2018-06-23T09:19:05.997Z,83.40
2018-06-23T09:21:33.602Z,81.76
2018-06-23T09:24:01.152Z,82.03
2018-06-23T09:26:28.303Z,77.96
2018-06-23T09:29:02.252Z,76.86
2018-06-23T09:31:30.221Z,76.39
2018-06-23T09:33:57.294Z,76.33
2018-06-23T09:36:24.318Z,74.99
2018-06-23T09:38:51.372Z,76.56
2018-06-23T09:41:19.341Z,78.66
2018-06-23T09:43:46.474Z,80.98
2018-06-23T09:46:13.923Z,83.08
2018-06-23T09:48:40.951Z,82.64
2018-06-23T09:51:08.109Z,82.74
2018-06-23T09:53:35.514Z,80.75
2018-06-23T09:56:02.719Z,83.24
2018-06-23T09:58:30.519Z,80.52
2018-06-23T10:00:57.624Z,82.51
2018-06-23T10:03:24.820Z,83.24
2018-06-23T10:05:52.025Z,85.45
2018-06-23T10:08:19.222Z,82.81
2018-06-23T10:10:48.481Z,85.62
2018-06-23T10:13:15.682Z,82.38
2018-06-23T10:15:42.883Z,81.18
2018-06-23T10:18:10.106Z,81.97
2018-06-23T10:20:37.196Z,79.86
2018-06-23T10:23:04.449Z,77.08
2018-06-23T10:25:31.975Z,79.20
2018-06-23T10:27:59.015Z,78.95
2018-06-23T10:30:26.158Z,80.22
2018-06-23T10:32:53.430Z,81.34
2018-06-23T10:35:20.478Z,81.73
2018-06-23T10:37:47.682Z,82.62
2018-06-23T10:40:14.847Z,81.60
2018-06-23T10:42:48.747Z,83.35
2018-06-23T10:45:15.761Z,85.22
2018-06-23T10:47:42.879Z,85.33
2018-06-23T10:50:10.308Z,84.18
2018-06-23T10:52:37.343Z,86.27
2018-06-23T10:55:04.617Z,86.20
2018-06-23T10:57:31.648Z,82.85
2018-06-23T10:59:58.710Z,81.50
2018-06-23T11:02:25.870Z,78.86
2018-06-23T11:04:52.991Z,80.64
2018-06-23T11:07:20.323Z,80.55
2018-06-23T11:09:47.413Z,79.35
2018-06-23T11:12:14.482Z,80.19
2018-06-23T11:14:41.497Z,78.67
2018-06-23T11:17:08.528Z,80.20
2018-06-23T11:19:35.565Z,80.81
2018-06-23T11:22:02.645Z,79.27
2018-06-23T11:24:29.748Z,80.22
2018-06-23T11:26:56.720Z,78.96
2018-06-23T11:29:23.973Z,81.25
2018-06-23T11:31:51.001Z,84.43
2018-06-23T11:34:18.041Z,86.51
2018-06-23T11:36:45.184Z,87.06
2018-06-23T11:39:12.195Z,90.49
2018-06-23T11:41:39.421Z,89.77
2018-06-23T11:44:06.430Z,90.03
2018-06-23T11:46:33.759Z,91.76
2018-06-23T11:49:00.770Z,92.65
2018-06-23T11:51:27.815Z,94.29
2018-06-23T11:53:54.923Z,95.96
2018-06-23T11:56:21.931Z,96.74
2018-06-23T11:58:49.005Z,96.90
2018-06-23T12:01:16.097Z,96.58
2018-06-23T12:03:43.113Z,96.17
2018-06-23T12:06:10.136Z,97.03
2018-06-23T12:08:37.461Z,96.50
2018-06-23T12:11:04.510Z,95.16
2018-06-23T12:13:31.514Z,94.57
2018-06-23T12:15:58.577Z,94.56
2018-06-23T12:18:25.705Z,93.88
2018-06-23T12:20:52.876Z,92.65
2018-06-23T12:23:19.994Z,93.05
2018-06-23T12:25:47.049Z,91.63
2018-06-23T12:28:14.070Z,93.06
2018-06-23T12:30:41.322Z,94.93
2018-06-23T12:33:08.386Z,96.60
2018-06-23T12:35:35.407Z,97.92
2018-06-23T12:38:02.442Z,99.02
2018-06-23T12:40:29.506Z,99.49
2018-06-23T12:42:56.513Z,100.00
2018-06-23T12:45:23.534Z,100.00
2018-06-23T12:47:50.662Z,100.00
2018-06-23T12:50:17.702Z,99.81
2018-06-23T12:52:45.115Z,100.00
2018-06-23T12:55:12.130Z,98.63
2018-06-23T12:57:39.237Z,98.60
2018-06-23T13:00:07.001Z,96.65
2018-06-23T13:02:34.169Z,97.47
2018-06-23T13:05:01.186Z,98.61
2018-06-23T13:07:28.257Z,99.08
2018-06-23T13:09:55.330Z,99.86
2018-06-23T13:12:22.358Z,99.72
2018-06-23T13:14:49.413Z,100.00
2018-06-23T13:17:16.448Z,100.00
2018-06-23T13:19:43.497Z,100.00
2018-06-23T13:22:10.513Z,100.00
2018-06-23T13:24:37.509Z,100.00
2018-06-23T13:27:04.729Z,100.00
2018-06-23T13:29:31.743Z,100.00
2018-06-23T13:31:58.776Z,100.00
2018-06-23T13:34:25.905Z,100.00
2018-06-23T13:36:52.934Z,100.00
2018-06-23T13:39:20.053Z,100.00
2018-06-23T13:41:54.177Z,100.00
2018-06-23T13:44:21.201Z,100.00
2018-06-23T13:46:48.202Z,100.00
2018-06-23T13:49:15.233Z,100.00
2018-06-23T13:51:49.261Z,100.00
2018-06-23T13:54:16.305Z,99.98
2018-06-23T13:56:43.429Z,100.00
2018-06-23T13:59:10.430Z,100.00
2018-06-23T14:01:37.474Z,100.00
2018-06-23T14:04:04.593Z,100.00
2018-06-23T14:06:31.612Z,100.00
2018-06-23T14:08:58.625Z,100.00
2018-06-23T14:11:25.635Z,100.00
2018-06-23T14:13:52.660Z,100.00
2018-06-23T14:16:19.701Z,100.00
2018-06-23T14:18:46.735Z,100.00
2018-06-23T14:21:13.742Z,100.00
2018-06-23T14:23:40.847Z,100.00
2018-06-23T14:26:07.863Z,100.00
2018-06-23T14:28:34.869Z,100.00
2018-06-23T14:31:01.920Z,100.00
2018-06-23T14:33:28.944Z,100.00
2018-06-23T14:35:55.962Z,100.00
2018-06-23T14:38:23.301Z,100.00
2018-06-23T14:40:50.305Z,100.00
2018-06-23T14:43:17.336Z,100.00
2018-06-23T14:45:44.365Z,100.00
2018-06-23T14:48:11.417Z,100.00
2018-06-23T14:50:38.528Z,100.00
2018-06-23T14:53:05.576Z,100.00
2018-06-23T14:55:32.929Z,100.00
2018-06-23T14:57:59.942Z,100.00
2018-06-23T15:00:26.940Z,100.00
2018-06-23T15:02:53.968Z,100.00
2018-06-23T15:05:20.981Z,100.00
2018-06-23T15:07:47.998Z,100.00
2018-06-23T15:10:26.628Z,100.00
2018-06-23T15:13:05.299Z,100.00
2018-06-23T15:15:32.503Z,100.00
2018-06-23T15:17:59.524Z,100.00
2018-06-23T15:20:26.654Z,100.00
2018-06-23T15:22:54.547Z,100.00
2018-06-23T15:25:22.797Z,100.00
2018-06-23T15:27:58.173Z,100.00
2018-06-23T15:30:26.596Z,100.00
2018-06-23T15:32:55.725Z,100.00
2018-06-23T15:35:24.064Z,100.00
2018-06-23T15:37:52.832Z,100.00
2018-06-23T15:40:28.562Z,99.37
2018-06-23T15:42:57.385Z,100.00
2018-06-23T15:45:25.728Z,100.00
2018-06-23T15:48:00.224Z,99.53
2018-06-23T15:50:29.836Z,99.13
2018-06-23T15:52:58.610Z,99.43
2018-06-23T15:55:25.878Z,100.00
2018-06-23T15:57:52.914Z,100.00
2018-06-23T16:00:20.096Z,99.62
2018-06-23T16:02:47.377Z,100.00
2018-06-23T16:05:14.525Z,100.00
2018-06-23T16:07:41.547Z,100.00
2018-06-23T16:10:15.433Z,100.00
2018-06-23T16:12:42.626Z,100.00
2018-06-23T16:15:09.766Z,100.00
2018-06-23T16:17:36.981Z,100.00
2018-06-23T16:20:04.086Z,100.00
2018-06-23T16:22:31.571Z,100.00
2018-06-23T16:24:58.737Z,100.00
2018-06-23T16:27:26.074Z,100.00
2018-06-23T16:29:53.202Z,100.00
2018-06-23T16:32:20.591Z,100.00
2018-06-23T16:34:47.675Z,100.00
2018-06-23T16:37:14.698Z,100.00
2018-06-23T16:39:42.107Z,100.00
2018-06-23T16:42:09.208Z,100.00
2018-06-23T16:44:36.316Z,100.00
2018-06-23T16:47:03.378Z,100.00
2018-06-23T16:49:31.170Z,100.00
2018-06-23T16:51:58.310Z,100.00
2018-06-23T16:54:25.501Z,100.00
2018-06-23T16:56:52.517Z,100.00
2018-06-23T16:59:19.660Z,100.00
2018-06-23T17:01:46.925Z,100.00
2018-06-23T17:04:14.015Z,100.00
2018-06-23T17:06:41.109Z,100.00
2018-06-23T17:09:09.229Z,100.00
2018-06-23T17:11:36.269Z,100.00
2018-06-23T17:14:03.354Z,100.00
2018-06-23T17:16:30.694Z,100.00
2018-06-23T17:18:57.959Z,100.00
2018-06-23T17:21:27.068Z,100.00
2018-06-23T17:23:54.442Z,100.00
2018-06-23T17:26:21.533Z,100.00
2018-06-23T17:28:48.561Z,100.00
2018-06-23T17:31:15.857Z,100.00
2018-06-23T17:33:43.007Z,100.00
2018-06-23T17:36:10.040Z,100.00
2018-06-23T17:38:58.977Z,100.00
2018-06-23T17:41:26.140Z,100.00
2018-06-23T17:43:54.014Z,100.00
2018-06-23T17:46:21.150Z,100.00
2018-06-23T17:48:48.294Z,100.00
2018-06-23T17:51:15.404Z,100.00
2018-06-23T17:53:42.416Z,100.00
2018-06-23T17:56:09.506Z,100.00
2018-06-23T17:58:37.585Z,100.00
2018-06-23T18:01:05.009Z,100.00
2018-06-23T18:03:32.293Z,100.00
2018-06-23T18:05:59.371Z,100.00
2018-06-23T18:08:26.644Z,100.00
2018-06-23T18:10:53.651Z,100.00
2018-06-23T18:13:20.789Z,100.00
2018-06-23T18:15:47.921Z,100.00
2018-06-23T18:18:15.232Z,100.00
2018-06-23T18:20:42.422Z,100.00
2018-06-23T18:23:09.564Z,100.00
2018-06-23T18:25:36.771Z,100.00
2018-06-23T18:28:04.052Z,100.00
2018-06-23T18:30:31.149Z,100.00
2018-06-23T18:32:58.251Z,100.00
2018-06-23T18:35:25.377Z,100.00
2018-06-23T18:37:52.614Z,100.00
2018-06-23T18:40:19.796Z,100.00
2018-06-23T18:42:47.348Z,100.00
2018-06-23T18:45:14.466Z,100.00
2018-06-23T18:47:41.750Z,100.00
2018-06-23T18:50:09.104Z,100.00
2018-06-23T18:52:36.342Z,100.00
2018-06-23T18:55:03.682Z,100.00
2018-06-23T18:57:30.799Z,100.00
2018-06-23T18:59:57.817Z,100.00
2018-06-23T19:02:25.041Z,100.00
2018-06-23T19:04:52.400Z,100.00
2018-06-23T19:07:19.444Z,100.00
2018-06-23T19:09:46.539Z,100.00
2018-06-23T19:12:13.801Z,100.00
2018-06-23T19:14:41.017Z,100.00
2018-06-23T19:17:08.086Z,100.00
2018-06-23T19:19:35.118Z,100.00
2018-06-23T19:22:02.483Z,100.00
2018-06-23T19:24:29.938Z,100.00
2018-06-23T19:26:57.137Z,100.00
2018-06-23T19:29:24.222Z,100.00
2018-06-23T19:31:51.375Z,100.00
2018-06-23T19:34:18.688Z,100.00
2018-06-23T19:36:45.913Z,100.00
2018-06-23T19:39:13.021Z,100.00
2018-06-23T19:41:40.210Z,100.00
2018-06-23T19:44:07.519Z,100.00
2018-06-23T19:46:34.857Z,100.00
2018-06-23T19:49:01.986Z,100.00
2018-06-23T19:51:29.095Z,100.00
2018-06-23T19:53:56.467Z,100.00
2018-06-23T19:56:23.500Z,100.00
2018-06-23T19:58:50.549Z,100.00
2018-06-23T20:01:17.907Z,100.00
2018-06-23T20:03:45.020Z,100.00
2018-06-23T20:06:12.389Z,100.00
2018-06-23T20:08:39.414Z,100.00
2018-06-23T20:11:06.896Z,100.00
2018-06-23T20:13:34.033Z,100.00
2018-06-23T20:16:01.090Z,100.00
2018-06-23T20:18:28.258Z,100.00
2018-06-23T20:20:55.504Z,100.00
2018-06-23T20:23:22.841Z,100.00
2018-06-23T20:25:50.360Z,100.00
2018-06-23T20:28:18.949Z,100.00
2018-06-23T20:30:46.289Z,100.00
2018-06-23T20:33:13.303Z,100.00
2018-06-23T20:35:40.837Z,100.00
2018-06-23T20:38:07.937Z,100.00
2018-06-23T20:40:35.024Z,100.00
2018-06-23T20:43:02.086Z,100.00
2018-06-23T20:45:29.334Z,100.00
2018-06-23T20:47:56.426Z,100.00
2018-06-23T20:50:23.608Z,100.00
2018-06-23T20:52:50.864Z,100.00
2018-06-23T20:55:18.371Z,100.00
2018-06-23T20:57:45.849Z,100.00
2018-06-23T21:00:12.957Z,100.00
2018-06-23T21:02:40.097Z,100.00
2018-06-23T21:05:07.590Z,100.00
2018-06-23T21:07:34.797Z,100.00
2018-06-23T21:10:02.083Z,100.00
2018-06-23T21:12:29.360Z,100.00
2018-06-23T21:14:57.245Z,100.00
2018-06-23T21:17:24.373Z,100.00
2018-06-23T21:19:51.631Z,100.00
2018-06-23T21:22:18.901Z,100.00
2018-06-23T21:24:45.911Z,100.00
2018-06-23T21:27:13.345Z,100.00
2018-06-23T21:29:40.396Z,100.00
2018-06-23T21:32:07.453Z,100.00
2018-06-23T21:34:34.616Z,100.00
2018-06-23T21:37:01.934Z,100.00
2018-06-23T21:39:29.264Z,100.00
2018-06-23T21:41:56.714Z,100.00
2018-06-23T21:44:24.168Z,100.00
2018-06-23T21:46:51.881Z,100.00
2018-06-23T21:49:18.921Z,100.00
2018-06-23T21:51:46.335Z,100.00
2018-06-23T21:54:13.606Z,100.00
2018-06-23T21:56:40.860Z,100.00
2018-06-23T21:59:08.831Z,100.00
2018-06-23T22:01:35.873Z,100.00
2018-06-23T22:04:03.654Z,100.00
2018-06-23T22:06:30.809Z,100.00
2018-06-23T22:08:57.816Z,100.00
2018-06-23T22:11:25.193Z,100.00
2018-06-23T22:13:52.373Z,100.00
2018-06-23T22:16:19.842Z,100.00
2018-06-23T22:18:47.043Z,100.00
2018-06-23T22:21:14.581Z,100.00
2018-06-23T22:23:42.032Z,100.00
2018-06-23T22:26:09.227Z,100.00
2018-06-23T22:28:36.729Z,100.00
2018-06-23T22:31:03.754Z,100.00
2018-06-23T22:33:30.833Z,100.00
2018-06-23T22:35:58.402Z,100.00
2018-06-23T22:38:25.491Z,99.98
2018-06-23T22:40:53.057Z,100.00
2018-06-23T22:43:20.918Z,99.79
2018-06-23T22:45:48.006Z,99.83
2018-06-23T22:48:15.292Z,98.51
2018-06-23T22:50:42.355Z,98.16
2018-06-23T22:53:09.455Z,97.31
2018-06-23T22:55:36.505Z,98.14
2018-06-23T22:58:04.287Z,97.98
2018-06-23T23:00:31.360Z,97.67
2018-06-23T23:02:58.481Z,98.23
2018-06-23T23:05:25.500Z,96.20
2018-06-23T23:07:52.501Z,96.74
2018-06-23T23:10:19.500Z,95.98
2018-06-23T23:12:46.678Z,95.27
2018-06-23T23:15:13.733Z,95.01
2018-06-23T23:17:40.739Z,95.63
2018-06-23T23:20:07.834Z,95.32
2018-06-23T23:22:34.852Z,96.45
2018-06-23T23:25:01.877Z,95.34
2018-06-23T23:27:29.042Z,95.91
2018-06-23T23:29:56.115Z,94.49
2018-06-23T23:32:23.206Z,94.40
2018-06-23T23:34:50.610Z,94.25
2018-06-23T23:37:17.665Z,94.08
2018-06-23T23:39:44.668Z,94.72
2018-06-23T23:42:11.729Z,94.17
2018-06-23T23:44:39.013Z,95.31
2018-06-23T23:47:06.112Z,95.72
2018-06-23T23:49:33.201Z,95.46
2018-06-23T23:52:00.337Z,96.04
2018-06-23T23:54:27.357Z,95.73
2018-06-23T23:56:54.465Z,96.22
2018-06-23T23:59:21.497Z,95.60
